Time;durP1;ratioP1;P1;durP2;ratioP2;P2;SDS_P1;SDS_P2;PMS_P1;PMS_P2;Temp;Humidity;BMP_temperature;BMP_pressure;BME280_temperature;BME280_humidity;BME280_pressure;Samples;Min_cycle;Max_cycle;Signal;HPM_P1;HPM_P2
2023/07/05 00:02:13;;;;;;;5.07;4.53;;;18.10;99.90;;;;;;4971614;28;20455;-72
2023/07/05 00:04:40;;;;;;;5.40;4.90;;;18.00;99.90;;;;;;4971124;28;20552;-72
2023/07/05 00:07:08;;;;;;;6.17;4.97;;;18.00;99.90;;;;;;4972757;28;20510;-72
2023/07/05 00:09:35;;;;;;;5.00;4.50;;;18.00;99.90;;;;;;4971665;28;20477;-71
2023/07/05 00:12:04;;;;;;;8.67;5.33;;;18.00;99.90;;;;;;4971242;28;20569;-71
2023/07/05 00:14:31;;;;;;;5.30;4.80;;;18.00;99.90;;;;;;4972618;28;20484;-73
2023/07/05 00:16:58;;;;;;;6.60;4.60;;;17.90;99.90;;;;;;4971174;28;20481;-72
2023/07/05 00:19:25;;;;;;;5.20;4.70;;;17.90;99.90;;;;;;4971511;28;20833;-72
2023/07/05 00:21:53;;;;;;;4.50;4.10;;;17.90;99.90;;;;;;4971188;28;20470;-72
2023/07/05 00:24:20;;;;;;;5.77;4.60;;;17.80;99.90;;;;;;4975715;28;20459;-71
2023/07/05 00:26:47;;;;;;;5.57;5.03;;;17.80;99.90;;;;;;4970725;28;20574;-72
2023/07/05 00:29:15;;;;;;;5.87;4.80;;;17.80;99.90;;;;;;4972810;28;20458;-71
2023/07/05 00:31:43;;;;;;;6.63;4.50;;;17.70;99.90;;;;;;4971270;28;20455;-71
2023/07/05 00:34:10;;;;;;;4.80;4.40;;;17.70;99.90;;;;;;4975476;28;20459;-71
2023/07/05 00:36:37;;;;;;;6.10;4.80;;;17.70;99.90;;;;;;4970931;28;20471;-71
2023/07/05 00:39:04;;;;;;;5.00;4.50;;;17.70;99.90;;;;;;4971254;28;20840;-71
2023/07/05 00:41:31;;;;;;;7.10;4.87;;;17.70;99.90;;;;;;4971522;28;20981;-72
2023/07/05 00:43:58;;;;;;;5.10;4.60;;;17.70;99.90;;;;;;4952717;28;20509;-71
2023/07/05 00:46:30;;;;;;;4.40;4.00;;;17.70;99.90;;;;;;4973480;28;20562;-70
2023/07/05 00:49:03;;;;;;;5.47;4.67;;;17.80;99.90;;;;;;4973715;28;20974;-71
2023/07/05 00:51:37;;;;;;;5.03;4.00;;;17.80;99.90;;;;;;4971356;28;21006;-71
2023/07/05 00:54:05;;;;;;;5.00;4.50;;;17.80;99.90;;;;;;4971878;28;21020;-71
2023/07/05 00:56:37;;;;;;;5.17;4.03;;;17.90;99.90;;;;;;4970787;28;20456;-72
2023/07/05 00:59:06;;;;;;;4.87;4.13;;;18.00;99.90;;;;;;4975033;28;20443;-71
2023/07/05 01:01:35;;;;;;;4.77;4.30;;;18.00;99.90;;;;;;4971178;28;20966;-70
2023/07/05 01:04:04;;;;;;;4.87;4.47;;;18.00;99.90;;;;;;4970434;28;20797;-71
2023/07/05 01:06:31;;;;;;;5.83;4.20;;;18.10;99.90;;;;;;4970467;28;20450;-71
2023/07/05 01:08:58;;;;;;;5.80;3.73;;;18.10;99.90;;;;;;4970340;28;20518;-71
2023/07/05 01:11:33;;;;;;;5.70;4.10;;;18.20;99.90;;;;;;4969936;28;20977;-72
2023/07/05 01:14:06;;;;;;;4.10;3.47;;;18.30;99.90;;;;;;4971356;28;20454;-71
2023/07/05 01:16:51;;;;;;;3.97;3.67;;;18.30;99.90;;;;;;4971492;28;20458;-71
2023/07/05 01:19:57;;;;;;;4.97;3.70;;;18.40;99.90;;;;;;4974948;28;22376;-72
2023/07/05 01:22:52;;;;;;;3.90;3.60;;;18.50;99.90;;;;;;4935088;28;20449;-71
2023/07/05 01:25:37;;;;;;;4.00;3.70;;;18.50;99.90;;;;;;4972077;28;20878;-70
2023/07/05 01:28:29;;;;;;;5.17;4.17;;;18.60;99.90;;;;;;4977926;28;20494;-71
2023/07/05 01:31:19;;;;;;;5.27;3.73;;;18.60;99.90;;;;;;4977847;28;20459;-71
2023/07/05 01:33:55;;;;;;;4.30;3.90;;;18.60;99.90;;;;;;4975842;28;20459;-71
2023/07/05 01:36:23;;;;;;;4.27;3.60;;;18.60;99.90;;;;;;4977423;28;20463;-72
2023/07/05 01:38:50;;;;;;;4.67;3.80;;;18.60;99.90;;;;;;4973368;28;20462;-72
2023/07/05 01:41:17;;;;;;;3.70;3.40;;;18.60;99.90;;;;;;4972665;28;21023;-72
2023/07/05 01:43:45;;;;;;;4.60;3.63;;;18.60;99.90;;;;;;4974664;28;20517;-71
2023/07/05 01:46:24;;;;;;;4.73;3.60;;;18.60;99.90;;;;;;4978207;28;20489;-70
2023/07/05 01:49:08;;;;;;;4.90;3.27;;;18.60;99.90;;;;;;4974396;28;20494;-71
2023/07/05 01:51:40;;;;;;;4.43;4.00;;;18.50;99.90;;;;;;4974114;28;20459;-71
2023/07/05 01:54:11;;;;;;;4.33;3.93;;;18.50;99.90;;;;;;4973199;28;20931;-72
2023/07/05 01:56:49;;;;;;;4.27;3.80;;;18.50;99.90;;;;;;4974165;28;21610;-72
2023/07/05 01:59:22;;;;;;;4.10;3.70;;;18.50;99.90;;;;;;4972970;28;20459;-71
2023/07/05 02:01:52;;;;;;;3.80;3.50;;;18.40;99.90;;;;;;4972588;28;20463;-71
2023/07/05 02:04:24;;;;;;;4.13;3.73;;;18.40;99.90;;;;;;4972467;28;20883;-71
2023/07/05 02:06:52;;;;;;;5.20;3.70;;;18.40;99.90;;;;;;4974000;28;20470;-71
2023/07/05 02:09:20;;;;;;;5.70;3.33;;;18.50;99.90;;;;;;4974295;28;20458;-73
2023/07/05 02:11:47;;;;;;;3.37;3.07;;;18.40;99.90;;;;;;4972811;28;20467;-70
2023/07/05 02:14:14;;;;;;;3.87;3.10;;;18.40;99.90;;;;;;4971868;28;20805;-70
2023/07/05 02:16:42;;;;;;;3.00;2.47;;;18.50;99.90;;;;;;4972036;28;20517;-71
2023/07/05 02:19:09;;;;;;;2.80;2.60;;;18.50;99.90;;;;;;4973653;28;20550;-72
2023/07/05 02:21:37;;;;;;;3.33;2.40;;;18.60;99.90;;;;;;4972969;28;21243;-71
2023/07/05 02:24:05;;;;;;;2.83;2.40;;;18.70;99.90;;;;;;4975896;28;20951;-71
2023/07/05 02:26:33;;;;;;;2.63;2.43;;;18.70;99.90;;;;;;4976588;28;20451;-71
2023/07/05 02:29:01;;;;;;;3.00;2.70;;;18.80;99.90;;;;;;4975005;28;20510;-71
2023/07/05 02:31:29;;;;;;;4.30;2.27;;;18.80;99.90;;;;;;4972097;28;20468;-72
2023/07/05 02:33:56;;;;;;;2.70;2.17;;;18.80;99.90;;;;;;4974855;28;20455;-71
2023/07/05 02:36:23;;;;;;;2.73;2.50;;;18.80;99.90;;;;;;4972155;28;20542;-71
2023/07/05 02:38:53;;;;;;;2.63;2.40;;;18.60;99.90;;;;;;4971944;28;20459;-71
2023/07/05 02:41:20;;;;;;;2.80;2.60;;;18.60;99.90;;;;;;4975060;28;20446;-71
2023/07/05 02:43:47;;;;;;;3.53;2.60;;;18.40;99.90;;;;;;4972641;28;20971;-71
2023/07/05 02:46:14;;;;;;;3.83;2.80;;;18.30;99.90;;;;;;4974903;28;20462;-71
2023/07/05 02:48:41;;;;;;;3.40;2.40;;;18.40;99.90;;;;;;4975837;28;20861;-71
2023/07/05 02:51:08;;;;;;;3.27;2.50;;;18.10;99.90;;;;;;4972013;28;20501;-71
2023/07/05 02:53:35;;;;;;;2.93;2.63;;;18.00;99.90;;;;;;4971949;28;20455;-71
2023/07/05 02:56:04;;;;;;;2.83;2.50;;;18.00;99.90;;;;;;4973623;28;20461;-71
2023/07/05 02:58:31;;;;;;;2.97;2.77;;;18.00;99.90;;;;;;4975673;28;20537;-71
2023/07/05 03:00:58;;;;;;;2.67;2.40;;;18.00;99.90;;;;;;4975183;28;20478;-71
2023/07/05 03:03:26;;;;;;;2.50;2.30;;;18.00;99.90;;;;;;4971956;28;20454;-71
2023/07/05 03:05:57;;;;;;;3.40;2.60;;;18.00;99.90;;;;;;4976909;28;20466;-71
2023/07/05 03:08:25;;;;;;;2.60;2.40;;;18.00;99.90;;;;;;4970671;28;20497;-71
2023/07/05 03:10:54;;;;;;;2.83;2.63;;;17.90;99.90;;;;;;4973020;28;20498;-71
2023/07/05 03:13:23;;;;;;;2.97;2.50;;;17.90;99.90;;;;;;4971634;28;20542;-71
2023/07/05 03:15:50;;;;;;;3.13;2.83;;;17.90;99.90;;;;;;4971201;28;20562;-71
2023/07/05 03:18:17;;;;;;;2.80;2.40;;;17.90;99.90;;;;;;4971824;28;20546;-71
2023/07/05 03:20:46;;;;;;;2.93;2.20;;;17.90;99.90;;;;;;4976085;28;20459;-70
2023/07/05 03:23:14;;;;;;;3.00;2.73;;;17.90;99.90;;;;;;4975525;28;20462;-70
2023/07/05 03:25:41;;;;;;;3.00;2.70;;;17.80;99.90;;;;;;4977499;28;20581;-69
2023/07/05 03:28:08;;;;;;;3.53;2.40;;;17.80;99.90;;;;;;4972273;28;20977;-71
2023/07/05 03:30:39;;;;;;;2.67;2.23;;;17.80;99.90;;;;;;4972053;28;20455;-71
2023/07/05 03:33:06;;;;;;;2.30;1.90;;;17.80;99.90;;;;;;4969322;28;20985;-71
2023/07/05 03:35:33;;;;;;;2.43;1.87;;;17.80;99.90;;;;;;4971647;28;20842;-71
2023/07/05 03:38:00;;;;;;;3.13;2.10;;;17.80;99.90;;;;;;4971673;28;20532;-70
2023/07/05 03:40:27;;;;;;;2.33;2.13;;;17.80;99.90;;;;;;4972214;28;21006;-71
2023/07/05 03:42:54;;;;;;;2.60;2.40;;;17.80;99.90;;;;;;4975368;28;20493;-71
2023/07/05 03:45:21;;;;;;;2.13;2.00;;;17.90;99.90;;;;;;4971827;28;20489;-71
2023/07/05 03:47:49;;;;;;;2.97;2.37;;;17.90;99.90;;;;;;4976520;28;21097;-71
2023/07/05 03:50:16;;;;;;;2.40;2.20;;;17.90;99.90;;;;;;4971075;28;20459;-71
2023/07/05 03:52:43;;;;;;;2.10;1.90;;;17.90;99.90;;;;;;4971767;28;20486;-71
2023/07/05 03:55:10;;;;;;;2.50;2.30;;;18.00;99.90;;;;;;4972378;28;20462;-71
2023/07/05 03:57:37;;;;;;;2.77;2.17;;;18.00;99.90;;;;;;4969930;28;21020;-71
2023/07/05 04:00:06;;;;;;;2.20;2.10;;;18.00;99.90;;;;;;4971940;28;20509;-71
2023/07/05 04:02:33;;;;;;;2.43;2.23;;;18.00;99.90;;;;;;4971362;28;20468;-72
2023/07/05 04:05:01;;;;;;;2.80;2.03;;;18.00;99.90;;;;;;4970201;28;20526;-71
2023/07/05 04:07:29;;;;;;;2.20;2.00;;;18.00;99.90;;;;;;4974894;28;21082;-71
2023/07/05 04:09:56;;;;;;;2.60;2.40;;;18.00;99.90;;;;;;4967569;28;20553;-72
2023/07/05 04:12:23;;;;;;;2.90;2.20;;;18.00;99.90;;;;;;4972734;28;20476;-71
2023/07/05 04:14:50;;;;;;;1.97;1.87;;;18.00;99.90;;;;;;4968237;28;20462;-71
2023/07/05 04:17:17;;;;;;;2.53;2.33;;;18.00;99.90;;;;;;4968966;28;21120;-70
2023/07/05 04:19:44;;;;;;;2.37;2.17;;;18.10;99.90;;;;;;4968544;28;20537;-70
2023/07/05 04:22:12;;;;;;;2.70;2.00;;;18.10;99.90;;;;;;4973458;28;20498;-70
2023/07/05 04:24:39;;;;;;;2.17;2.07;;;18.10;99.90;;;;;;4973956;28;20498;-69
2023/07/05 04:27:07;;;;;;;2.80;1.87;;;18.10;99.90;;;;;;4970507;28;20485;-70
2023/07/05 04:29:34;;;;;;;2.20;2.10;;;18.10;99.90;;;;;;4971881;28;20605;-71
2023/07/05 04:32:01;;;;;;;2.47;2.10;;;18.10;99.90;;;;;;4970926;28;20561;-72
2023/07/05 04:34:28;;;;;;;2.47;2.27;;;18.00;99.90;;;;;;4975456;28;20542;-73
2023/07/05 04:36:55;;;;;;;2.80;2.40;;;18.00;99.90;;;;;;4972206;28;20485;-74
2023/07/05 04:39:23;;;;;;;2.33;2.13;;;18.00;99.90;;;;;;4972038;28;20459;-74
2023/07/05 04:41:50;;;;;;;2.70;2.40;;;18.00;99.90;;;;;;4976168;28;20558;-74
2023/07/05 04:44:18;;;;;;;2.50;2.27;;;17.90;99.90;;;;;;4973702;28;20467;-75
2023/07/05 04:46:45;;;;;;;3.20;2.30;;;17.90;99.90;;;;;;4970352;28;20474;-75
2023/07/05 04:49:12;;;;;;;3.10;2.40;;;17.80;99.90;;;;;;4970961;28;20576;-75
2023/07/05 04:51:39;;;;;;;3.57;2.90;;;18.00;99.90;;;;;;4969809;28;20473;-74
2023/07/05 04:54:06;;;;;;;2.57;2.37;;;17.80;99.90;;;;;;4971692;28;20525;-74
2023/07/05 04:56:34;;;;;;;2.70;2.50;;;17.70;99.90;;;;;;4974540;28;20513;-75
2023/07/05 04:59:01;;;;;;;2.23;2.03;;;17.70;99.90;;;;;;4975540;28;20963;-75
2023/07/05 05:01:28;;;;;;;2.97;2.30;;;17.80;99.90;;;;;;4979394;28;20533;-75
2023/07/05 05:03:55;;;;;;;2.43;2.23;;;17.80;99.90;;;;;;4974736;28;20574;-74
2023/07/05 05:06:23;;;;;;;3.30;2.67;;;17.80;99.90;;;;;;4977334;28;20482;-78
2023/07/05 05:08:50;;;;;;;2.27;2.07;;;17.90;99.90;;;;;;4964064;28;20490;-76
2023/07/05 05:11:17;;;;;;;2.37;1.97;;;17.90;99.90;;;;;;4968385;28;20466;-76
2023/07/05 05:13:46;;;;;;;2.20;2.00;;;18.00;99.90;;;;;;4972267;28;20469;-75
2023/07/05 05:16:13;;;;;;;2.10;2.00;;;18.10;99.90;;;;;;4966967;28;20585;-76
2023/07/05 05:18:40;;;;;;;2.33;2.10;;;18.40;99.90;;;;;;4975795;28;20983;-76
2023/07/05 05:21:07;;;;;;;2.80;2.20;;;18.20;99.90;;;;;;4966611;28;20549;-75
2023/07/05 05:23:34;;;;;;;2.40;2.07;;;18.20;99.90;;;;;;4968209;28;20456;-75
2023/07/05 05:26:01;;;;;;;2.67;2.47;;;18.30;99.90;;;;;;4973588;28;20553;-76
2023/07/05 05:28:29;;;;;;;2.73;2.23;;;18.40;99.90;;;;;;4973085;28;21005;-75
2023/07/05 05:31:03;;;;;;;2.30;1.90;;;18.50;99.90;;;;;;4972994;28;20458;-74
2023/07/05 05:33:31;;;;;;;2.83;2.03;;;18.70;99.90;;;;;;4971082;28;20542;-76
2023/07/05 05:35:58;;;;;;;3.60;2.27;;;18.80;99.90;;;;;;4976364;28;20607;-76
2023/07/05 05:38:24;;;;;;;2.73;2.00;;;19.00;99.90;;;;;;4978234;28;21909;-76
2023/07/05 05:40:52;;;;;;;2.70;1.90;;;18.90;99.90;;;;;;4976697;28;20458;-75
2023/07/05 05:43:20;;;;;;;2.20;2.00;;;18.90;99.90;;;;;;4976017;28;20460;-75
2023/07/05 05:45:47;;;;;;;4.10;2.40;;;19.30;99.90;;;;;;4976315;28;20495;-75
2023/07/05 05:48:16;;;;;;;2.60;2.40;;;19.10;99.90;;;;;;4977425;28;20573;-75
2023/07/05 05:50:43;;;;;;;2.37;2.17;;;19.10;99.90;;;;;;4976011;28;20462;-75
2023/07/05 05:53:11;;;;;;;5.30;1.90;;;19.20;99.90;;;;;;4970937;28;20560;-72
2023/07/05 05:55:38;;;;;;;2.57;2.23;;;19.20;99.90;;;;;;4974855;28;20446;-71
2023/07/05 05:58:05;;;;;;;2.50;2.00;;;19.30;99.90;;;;;;4977085;28;20564;-71
2023/07/05 06:00:32;;;;;;;2.53;1.90;;;19.30;99.90;;;;;;4970862;28;20468;-72
2023/07/05 06:03:00;;;;;;;4.13;2.17;;;19.40;99.90;;;;;;4978812;28;20923;-72
2023/07/05 06:05:28;;;;;;;2.63;2.40;;;19.50;99.90;;;;;;4978814;28;20466;-71
2023/07/05 06:07:55;;;;;;;2.30;1.90;;;19.60;99.90;;;;;;4973024;28;20480;-70
2023/07/05 06:10:23;;;;;;;2.60;2.00;;;19.70;99.90;;;;;;4919659;28;1480082;-70
2023/07/05 06:12:50;;;;;;;2.27;2.03;;;19.90;99.90;;;;;;4969843;28;20205;-72
2023/07/05 06:15:17;;;;;;;2.63;2.03;;;19.90;99.90;;;;;;4970331;28;20546;-70
2023/07/05 06:17:44;;;;;;;2.57;2.20;;;19.80;99.90;;;;;;4971186;28;20479;-71
2023/07/05 06:20:14;;;;;;;4.40;3.20;;;19.30;99.90;;;;;;4974708;28;20462;-71
2023/07/05 06:22:42;;;;;;;3.47;2.40;;;19.10;99.90;;;;;;4974270;28;20466;-71
2023/07/05 06:25:11;;;;;;;3.63;2.50;;;18.70;99.90;;;;;;4973950;28;20561;-71
2023/07/05 06:27:38;;;;;;;2.67;2.30;;;18.40;99.90;;;;;;4977396;28;20481;-71
2023/07/05 06:30:06;;;;;;;3.50;1.83;;;18.20;99.90;;;;;;4975258;28;20736;-72
2023/07/05 06:32:34;;;;;;;3.43;2.30;;;17.90;99.90;;;;;;4978874;28;20459;-71
2023/07/05 06:35:02;;;;;;;2.90;2.43;;;17.70;99.90;;;;;;4975362;28;20466;-72
2023/07/05 06:37:29;;;;;;;5.07;2.73;;;17.50;99.90;;;;;;4972282;28;20514;-72
2023/07/05 06:39:57;;;;;;;3.63;2.50;;;17.30;99.90;;;;;;4973704;28;20513;-75
2023/07/05 06:42:24;;;;;;;3.20;2.80;;;16.90;99.90;;;;;;4972683;28;20445;-74
2023/07/05 06:44:51;;;;;;;3.90;2.87;;;16.60;99.90;;;;;;4978595;28;20458;-75
2023/07/05 06:47:18;;;;;;;3.70;3.40;;;16.50;99.90;;;;;;4974069;28;20479;-75
2023/07/05 06:49:45;;;;;;;4.90;3.40;;;16.30;99.90;;;;;;4978570;28;20517;-74
2023/07/05 06:52:12;;;;;;;3.07;2.50;;;16.20;99.90;;;;;;4973088;28;20451;-75
2023/07/05 06:54:39;;;;;;;3.73;3.20;;;16.20;99.90;;;;;;4972753;28;20509;-74
2023/07/05 06:57:08;;;;;;;5.43;2.97;;;16.20;99.90;;;;;;4972853;28;20566;-74
2023/07/05 06:59:35;;;;;;;3.03;2.40;;;16.10;99.90;;;;;;4972207;28;20491;-74
2023/07/05 07:02:02;;;;;;;3.73;3.43;;;16.10;99.90;;;;;;4972413;28;20549;-74
2023/07/05 07:04:29;;;;;;;3.93;2.67;;;16.10;99.90;;;;;;4976789;28;20451;-74
2023/07/05 07:06:59;;;;;;;3.80;2.90;;;16.20;99.90;;;;;;4972266;28;20467;-74
2023/07/05 07:09:26;;;;;;;3.33;2.57;;;16.20;99.90;;;;;;4974100;28;20525;-74
2023/07/05 07:11:53;;;;;;;3.67;2.20;;;16.20;99.90;;;;;;4973436;28;20469;-74
2023/07/05 07:14:22;;;;;;;2.50;2.30;;;16.20;99.90;;;;;;4973405;28;20458;-74
2023/07/05 07:16:49;;;;;;;2.60;2.40;;;16.20;99.90;;;;;;4972720;28;20495;-74
2023/07/05 07:19:17;;;;;;;4.30;2.73;;;16.30;99.90;;;;;;4972212;28;20469;-74
2023/07/05 07:21:45;;;;;;;5.00;2.30;;;16.30;99.90;;;;;;4969804;28;20466;-74
2023/07/05 07:24:12;;;;;;;2.87;2.67;;;16.40;99.90;;;;;;4974918;28;20462;-74
2023/07/05 07:26:39;;;;;;;4.17;2.80;;;16.50;99.90;;;;;;4974978;28;20510;-72
2023/07/05 07:29:08;;;;;;;3.37;3.00;;;16.60;99.90;;;;;;4972105;28;20578;-71
2023/07/05 07:31:37;;;;;;;2.30;2.10;;;16.70;99.90;;;;;;4971439;28;20468;-73
2023/07/05 07:34:04;;;;;;;2.90;2.67;;;16.80;99.90;;;;;;4977444;28;21123;-72
2023/07/05 07:36:33;;;;;;;2.30;2.17;;;16.90;99.90;;;;;;4977838;28;20541;-71
2023/07/05 07:39:01;;;;;;;2.70;2.50;;;17.00;99.90;;;;;;4975662;28;20487;-73
2023/07/05 07:41:29;;;;;;;3.00;2.70;;;17.10;99.90;;;;;;4973608;28;20463;-73
2023/07/05 07:44:01;;;;;;;2.87;2.57;;;17.10;99.90;;;;;;4969196;28;20489;-72
2023/07/05 07:46:29;;;;;;;2.60;2.40;;;17.20;99.90;;;;;;4973405;28;20493;-73
2023/07/05 07:49:00;;;;;;;2.90;2.60;;;17.70;99.90;;;;;;4975451;28;20459;-72
2023/07/05 07:51:30;;;;;;;3.00;2.70;;;17.70;99.90;;;;;;4972245;28;20532;-72
2023/07/05 07:53:58;;;;;;;3.23;2.40;;;17.80;99.90;;;;;;4975734;28;20458;-72
2023/07/05 07:56:26;;;;;;;3.13;2.57;;;17.70;99.90;;;;;;4975980;28;20470;-72
2023/07/05 07:58:55;;;;;;;2.60;2.40;;;17.60;99.90;;;;;;4975904;28;20458;-72
2023/07/05 08:01:25;;;;;;;2.27;2.17;;;17.50;99.90;;;;;;4973870;28;21867;-72
2023/07/05 08:03:52;;;;;;;4.77;2.30;;;17.30;99.90;;;;;;4974319;28;20455;-72
2023/07/05 08:06:27;;;;;;;2.90;2.70;;;17.20;99.90;;;;;;4977054;28;20482;-72
2023/07/05 08:08:55;;;;;;;2.70;2.50;;;17.10;99.90;;;;;;4967242;28;21261;-72
2023/07/05 08:11:22;;;;;;;3.20;3.00;;;17.30;99.90;;;;;;4974978;28;20463;-71
2023/07/05 08:13:50;;;;;;;3.37;3.07;;;17.50;99.90;;;;;;4972045;28;20458;-72
2023/07/05 08:16:18;;;;;;;3.57;2.83;;;17.50;99.90;;;;;;4975318;28;20482;-71
2023/07/05 08:18:45;;;;;;;4.33;2.90;;;17.50;99.90;;;;;;4971299;28;20466;-72
2023/07/05 08:21:14;;;;;;;5.87;3.07;;;17.30;99.90;;;;;;4975827;28;20461;-72
2023/07/05 08:23:43;;;;;;;3.00;2.80;;;17.40;99.90;;;;;;4970420;28;20476;-72
2023/07/05 08:26:10;;;;;;;3.37;3.07;;;17.40;99.90;;;;;;4978753;28;20471;-72
2023/07/05 08:28:37;;;;;;;3.80;3.50;;;17.30;99.90;;;;;;4972730;28;20545;-72
2023/07/05 08:31:06;;;;;;;3.50;3.20;;;17.40;99.90;;;;;;4970617;28;20871;-72
2023/07/05 08:33:34;;;;;;;3.80;3.50;;;17.20;99.90;;;;;;4968676;28;21056;-72
2023/07/05 08:36:19;;;;;;;3.30;3.10;;;17.10;99.90;;;;;;4968220;28;21618;-72
2023/07/05 08:38:50;;;;;;;4.43;4.03;;;17.00;99.90;;;;;;4967484;28;20466;-72
2023/07/05 08:41:27;;;;;;;4.13;3.33;;;17.00;99.90;;;;;;4972366;28;20467;-72
2023/07/05 08:43:58;;;;;;;4.07;3.67;;;17.10;99.90;;;;;;4970044;28;20468;-71
2023/07/05 08:46:27;;;;;;;3.70;3.40;;;17.00;99.90;;;;;;4969253;28;20473;-71
2023/07/05 08:49:00;;;;;;;4.83;3.90;;;17.10;99.90;;;;;;4970842;28;20656;-71
2023/07/05 08:51:28;;;;;;;4.53;4.13;;;17.10;99.90;;;;;;4971684;28;20609;-72
2023/07/05 08:54:01;;;;;;;3.80;3.50;;;17.20;99.90;;;;;;4974727;28;20466;-71
2023/07/05 08:56:33;;;;;;;3.90;3.60;;;17.40;99.90;;;;;;4974614;28;20580;-71
2023/07/05 08:59:07;;;;;;;4.93;3.80;;;17.50;99.90;;;;;;4973113;28;20490;-71
2023/07/05 09:01:39;;;;;;;4.67;4.07;;;17.70;99.90;;;;;;4975709;28;20603;-71
2023/07/05 09:04:10;;;;;;;3.63;3.43;;;17.90;99.90;;;;;;4972799;28;20496;-72
2023/07/05 09:06:49;;;;;;;3.70;3.40;;;18.40;99.90;;;;;;4973759;28;20482;-72
2023/07/05 09:09:31;;;;;;;4.47;4.07;;;18.50;99.90;;;;;;4972242;28;20911;-72
2023/07/05 09:12:07;;;;;;;4.63;3.63;;;18.50;99.90;;;;;;4970360;28;21965;-72
2023/07/05 09:14:51;;;;;;;4.80;3.80;;;18.70;99.90;;;;;;4972113;28;20452;-70
2023/07/05 09:17:25;;;;;;;4.63;4.23;;;19.00;99.90;;;;;;4974106;28;20471;-70
2023/07/05 09:20:01;;;;;;;4.20;3.83;;;19.10;99.90;;;;;;4972788;28;20507;-70
2023/07/05 09:22:33;;;;;;;5.60;4.40;;;19.30;99.90;;;;;;4974939;28;20458;-73
2023/07/05 09:25:02;;;;;;;4.37;3.97;;;19.40;99.90;;;;;;4968529;28;20459;-72
2023/07/05 09:27:34;;;;;;;5.30;4.30;;;19.50;99.90;;;;;;4970159;28;20478;-72
2023/07/05 09:30:06;;;;;;;4.20;3.90;;;19.70;99.90;;;;;;4972476;28;20620;-72
2023/07/05 09:32:37;;;;;;;4.10;3.80;;;19.80;99.90;;;;;;4974761;28;20456;-72
2023/07/05 09:35:12;;;;;;;5.47;4.57;;;19.90;99.90;;;;;;4974810;28;20495;-72
2023/07/05 09:37:44;;;;;;;4.83;4.43;;;20.00;99.90;;;;;;4974782;28;20470;-72
2023/07/05 09:40:17;;;;;;;4.60;4.20;;;20.10;99.90;;;;;;4971189;28;20545;-72
2023/07/05 09:42:51;;;;;;;5.13;4.30;;;20.20;99.90;;;;;;4980606;28;20493;-72
2023/07/05 09:45:20;;;;;;;4.10;3.80;;;20.50;99.90;;;;;;4977677;28;20807;-72
2023/07/05 09:47:50;;;;;;;4.07;3.67;;;20.80;99.90;;;;;;4975893;28;20557;-71
2023/07/05 09:50:19;;;;;;;3.80;3.40;;;20.80;99.90;;;;;;4977439;28;20492;-72
2023/07/05 09:52:50;;;;;;;4.50;4.10;;;20.90;99.90;;;;;;4974918;28;20551;-72
2023/07/05 09:55:20;;;;;;;4.57;4.17;;;20.90;99.90;;;;;;4970744;28;21033;-72
2023/07/05 09:57:50;;;;;;;4.20;3.90;;;21.00;99.90;;;;;;4976948;28;20535;-72
2023/07/05 10:00:26;;;;;;;4.63;4.23;;;20.90;99.90;;;;;;4977484;28;20500;-72
2023/07/05 10:02:56;;;;;;;4.60;4.20;;;20.90;99.90;;;;;;4976752;28;21073;-72
2023/07/05 10:05:28;;;;;;;4.17;3.87;;;20.90;99.90;;;;;;4978265;28;20462;-71
2023/07/05 10:07:59;;;;;;;3.93;3.60;;;21.10;99.90;;;;;;4975722;28;20536;-71
2023/07/05 10:10:29;;;;;;;4.33;3.93;;;21.40;99.90;;;;;;4974660;28;21142;-71
2023/07/05 10:13:03;;;;;;;4.37;4.07;;;21.70;99.90;;;;;;4974811;28;20454;-71
2023/07/05 10:15:31;;;;;;;4.47;4.07;;;22.10;99.90;;;;;;4969157;28;20518;-71
2023/07/05 10:17:58;;;;;;;3.90;3.60;;;22.50;99.90;;;;;;4975358;28;20565;-71
2023/07/05 10:20:28;;;;;;;4.10;3.80;;;23.10;99.90;;;;;;4977502;28;21095;-71
2023/07/05 10:23:01;;;;;;;3.93;3.60;;;23.60;99.90;;;;;;4978716;28;20542;-71
2023/07/05 10:25:33;;;;;;;4.30;3.93;;;24.00;99.90;;;;;;4983470;28;20490;-71
2023/07/05 10:28:03;;;;;;;3.70;3.40;;;23.90;99.30;;;;;;4973096;28;20490;-71
2023/07/05 10:30:30;;;;;;;5.30;3.60;;;24.00;98.70;;;;;;4973945;28;20474;-71
2023/07/05 10:33:17;;;;;;;4.17;3.87;;;24.00;98.50;;;;;;4977577;28;20445;-71
2023/07/05 10:35:54;;;;;;;4.20;3.90;;;24.40;97.90;;;;;;4975154;28;20455;-71
2023/07/05 10:38:27;;;;;;;5.00;3.67;;;24.40;96.20;;;;;;4973167;28;20954;-71
2023/07/05 10:41:01;;;;;;;3.60;3.30;;;24.20;95.30;;;;;;4980529;28;20462;-70
2023/07/05 10:43:31;;;;;;;3.97;3.50;;;24.50;96.30;;;;;;4971498;28;20457;-72
2023/07/05 10:46:00;;;;;;;3.50;3.30;;;24.60;94.70;;;;;;4977269;28;20493;-71
2023/07/05 10:48:35;;;;;;;4.17;3.77;;;24.50;93.00;;;;;;4971204;28;20560;-71
2023/07/05 10:51:03;;;;;;;3.90;3.60;;;24.60;93.60;;;;;;4971853;28;20573;-71
2023/07/05 10:53:32;;;;;;;3.47;3.23;;;24.40;93.80;;;;;;4972664;28;20793;-71
2023/07/05 10:56:06;;;;;;;3.70;3.43;;;24.10;94.20;;;;;;4975216;28;20474;-71
2023/07/05 10:58:43;;;;;;;3.13;2.93;;;24.10;94.30;;;;;;4972374;28;20745;-70
2023/07/05 11:01:16;;;;;;;4.40;3.77;;;23.90;93.20;;;;;;4972955;28;21300;-70
2023/07/05 11:03:51;;;;;;;3.27;2.90;;;23.70;93.60;;;;;;4976308;28;20454;-72
2023/07/05 11:06:20;;;;;;;4.40;3.97;;;23.60;93.20;;;;;;4972560;28;20483;-72
2023/07/05 11:08:47;;;;;;;3.37;2.80;;;23.30;94.00;;;;;;4970905;28;20462;-72
2023/07/05 11:11:19;;;;;;;3.50;3.00;;;23.20;91.90;;;;;;4969299;28;20509;-71
2023/07/05 11:13:48;;;;;;;3.13;2.77;;;23.30;90.50;;;;;;4974047;28;20820;-71
2023/07/05 11:16:21;;;;;;;2.90;2.67;;;23.40;89.30;;;;;;4976987;28;20478;-72
2023/07/05 11:18:49;;;;;;;3.77;2.37;;;23.30;85.70;;;;;;4974822;28;20870;-71
2023/07/05 11:21:37;;;;;;;2.97;2.73;;;23.30;84.40;;;;;;4975363;28;21065;-72
2023/07/05 11:24:05;;;;;;;4.67;2.63;;;23.40;86.40;;;;;;4971936;28;20461;-71
2023/07/05 11:26:41;;;;;;;4.07;2.97;;;23.60;86.20;;;;;;4975902;28;21965;-70
2023/07/05 11:29:49;;;;;;;3.53;2.67;;;23.90;90.10;;;;;;4968095;28;20507;-70
2023/07/05 11:32:16;;;;;;;3.70;3.40;;;23.60;90.30;;;;;;4977142;28;20563;-70
2023/07/05 11:34:49;;;;;;;3.63;3.33;;;24.00;89.70;;;;;;4971625;28;20485;-71
2023/07/05 11:37:51;;;;;;;3.17;2.97;;;24.50;87.60;;;;;;4970833;28;20481;-68
2023/07/05 11:41:04;;;;;;;3.80;2.93;;;24.70;84.70;;;;;;4971082;28;20469;-70
2023/07/05 11:43:40;;;;;;;3.40;3.10;;;25.20;84.30;;;;;;4973216;28;20461;-70
2023/07/05 11:46:38;;;;;;;3.10;2.80;;;25.60;84.60;;;;;;4968288;28;20484;-71
2023/07/05 11:49:28;;;;;;;4.00;3.03;;;25.30;82.50;;;;;;4973884;28;20470;-68
2023/07/05 11:51:59;;;;;;;2.50;2.30;;;25.90;83.30;;;;;;4971173;28;20582;-69
2023/07/05 11:54:36;;;;;;;2.83;2.60;;;25.90;80.80;;;;;;4972603;28;20472;-69
2023/07/05 11:57:09;;;;;;;2.73;2.53;;;25.80;80.80;;;;;;4975505;28;20485;-73
2023/07/05 11:59:41;;;;;;;5.30;3.10;;;25.60;81.40;;;;;;4973655;28;20468;-69
2023/07/05 12:02:26;;;;;;;3.00;2.70;;;26.10;81.20;;;;;;4974476;28;20537;-72
2023/07/05 12:04:57;;;;;;;4.30;2.73;;;26.40;79.40;;;;;;4971892;28;20821;-72
2023/07/05 12:07:26;;;;;;;4.70;3.13;;;26.50;78.50;;;;;;4971433;28;20497;-72
2023/07/05 12:09:57;;;;;;;2.80;2.60;;;26.20;78.50;;;;;;4971316;28;20982;-73
2023/07/05 12:12:24;;;;;;;3.23;3.03;;;26.50;79.40;;;;;;4969698;28;20577;-71
2023/07/05 12:14:52;;;;;;;3.10;2.60;;;26.00;78.60;;;;;;4971197;28;20463;-71
2023/07/05 12:17:25;;;;;;;4.97;2.80;;;25.40;80.10;;;;;;4971754;28;20477;-72
2023/07/05 12:19:52;;;;;;;3.67;2.60;;;25.70;78.60;;;;;;4956070;28;20465;-72
2023/07/05 12:22:25;;;;;;;2.60;2.40;;;26.10;75.10;;;;;;4957668;28;20512;-72
2023/07/05 12:24:56;;;;;;;2.77;2.57;;;26.10;76.50;;;;;;4964916;28;21076;-72
2023/07/05 12:27:26;;;;;;;3.50;2.90;;;26.10;76.00;;;;;;4966373;28;20493;-72
2023/07/05 12:29:56;;;;;;;5.83;2.77;;;26.20;73.80;;;;;;4975338;28;20461;-72
2023/07/05 12:32:27;;;;;;;3.00;2.77;;;26.40;74.40;;;;;;4970284;28;20590;-71
2023/07/05 12:35:15;;;;;;;4.53;2.70;;;25.90;72.90;;;;;;4968441;28;20478;-72
2023/07/05 12:37:43;;;;;;;2.60;2.40;;;26.20;72.90;;;;;;4980006;28;21204;-72
2023/07/05 12:40:20;;;;;;;3.03;2.83;;;25.80;73.30;;;;;;4976554;28;20815;-71
2023/07/05 12:42:53;;;;;;;2.63;2.43;;;26.00;72.50;;;;;;4969740;28;20469;-71
2023/07/05 12:45:26;;;;;;;2.43;2.23;;;26.50;71.50;;;;;;4966160;28;20501;-71
2023/07/05 12:47:53;;;;;;;2.37;2.17;;;26.30;68.80;;;;;;4965691;28;20470;-72
2023/07/05 12:50:22;;;;;;;3.97;2.30;;;26.20;68.40;;;;;;4972374;28;20873;-71
2023/07/05 12:53:06;;;;;;;4.50;2.50;;;26.30;67.60;;;;;;4966192;28;20520;-72
2023/07/05 12:55:36;;;;;;;2.40;2.20;;;26.20;67.10;;;;;;4970190;28;21058;-72
2023/07/05 12:58:07;;;;;;;2.30;2.10;;;26.00;67.00;;;;;;4966666;28;20513;-72
2023/07/05 13:00:40;;;;;;;2.23;2.03;;;25.90;65.90;;;;;;4968894;28;20863;-71
2023/07/05 13:03:14;;;;;;;2.97;2.67;;;26.00;67.20;;;;;;4967220;28;20963;-72
2023/07/05 13:05:41;;;;;;;2.73;2.40;;;25.90;66.90;;;;;;4972695;28;20486;-71